Terminal Aerodrome Forecast
Issued by NWS Atlanta, GA

Home | Current Version | Previous Version | Text Only | Print | Product List | Glossary On
Versions: 1 2 3 4 5 6 7 8 9 10 11 12 13 14 15 16 17 18 19 20 21 22 23 24 25 26 27 28 29 30 31 32 33
000
FTAK31 PAJN 261100
TAFAHN
TAF
PAHN 261130Z 2612/2712 11005KT P6SM -RA FEW004 SCT008 OVC035
      TEMPO 2612/2615 4SM RA BR OVC008
     FM261500 08006KT 4SM -RA BR SCT008 BKN015 OVC030
     FM262200 11008KT 6SM -RA BR SCT020 OVC035
     FM270600 10006KT 4SM -RA BR BKN012 OVC020
      AMD LTD TO CLD VIS AND WIND=

USA.gov is the U.S. government's official web portal to all federal, state and local government web resources and services.